sensor_id;sensor_type;location;lat;lon;timestamp;temperature;humidity
41469;DHT22;27206;47.032;15.484;2023-02-01T00:00:32;-1.20;99.90
41469;DHT22;27206;47.032;15.484;2023-02-01T00:02:59;-1.20;99.90
41469;DHT22;27206;47.032;15.484;2023-02-01T00:05:25;-1.40;99.90
41469;DHT22;27206;47.032;15.484;2023-02-01T00:07:51;-1.40;99.90
41469;DHT22;27206;47.032;15.484;2023-02-01T00:10:17;-1.40;99.90
41469;DHT22;27206;47.032;15.484;2023-02-01T00:12:42;-1.60;99.90
41469;DHT22;27206;47.032;15.484;2023-02-01T00:15:08;-1.60;99.90
41469;DHT22;27206;47.032;15.484;2023-02-01T00:17:33;-1.80;99.90
41469;DHT22;27206;47.032;15.484;2023-02-01T00:19:59;-1.80;99.90
41469;DHT22;27206;47.032;15.484;2023-02-01T00:22:24;-1.70;99.90
41469;DHT22;27206;47.032;15.484;2023-02-01T00:24:50;-1.70;99.90
41469;DHT22;27206;47.032;15.484;2023-02-01T00:27:15;-1.90;99.90
41469;DHT22;27206;47.032;15.484;2023-02-01T00:29:45;-1.80;99.90
41469;DHT22;27206;47.032;15.484;2023-02-01T00:32:11;-1.70;99.90
41469;DHT22;27206;47.032;15.484;2023-02-01T00:34:37;-1.60;99.90
41469;DHT22;27206;47.032;15.484;2023-02-01T00:37:02;-1.70;99.90
41469;DHT22;27206;47.032;15.484;2023-02-01T00:39:28;-1.70;99.90
41469;DHT22;27206;47.032;15.484;2023-02-01T00:41:53;-1.80;99.90
41469;DHT22;27206;47.032;15.484;2023-02-01T00:44:19;-1.70;99.90
41469;DHT22;27206;47.032;15.484;2023-02-01T00:46:44;-1.70;99.90
41469;DHT22;27206;47.032;15.484;2023-02-01T00:49:10;-1.70;99.90
41469;DHT22;27206;47.032;15.484;2023-02-01T00:51:35;-1.70;99.90
41469;DHT22;27206;47.032;15.484;2023-02-01T00:54:01;-1.70;99.90
41469;DHT22;27206;47.032;15.484;2023-02-01T00:56:28;-1.80;99.90
41469;DHT22;27206;47.032;15.484;2023-02-01T00:58:54;-1.90;99.90
41469;DHT22;27206;47.032;15.484;2023-02-01T01:01:21;-1.80;99.90
41469;DHT22;27206;47.032;15.484;2023-02-01T01:03:48;-1.90;99.90
41469;DHT22;27206;47.032;15.484;2023-02-01T01:06:15;-2.00;99.90
41469;DHT22;27206;47.032;15.484;2023-02-01T01:08:41;-1.90;99.90
41469;DHT22;27206;47.032;15.484;2023-02-01T01:13:32;-1.80;99.90
41469;DHT22;27206;47.032;15.484;2023-02-01T01:15:59;-1.80;99.90
41469;DHT22;27206;47.032;15.484;2023-02-01T01:18:28;-1.80;99.90
41469;DHT22;27206;47.032;15.484;2023-02-01T01:20:53;-1.70;99.90
41469;DHT22;27206;47.032;15.484;2023-02-01T01:23:19;-1.70;99.90
41469;DHT22;27206;47.032;15.484;2023-02-01T01:25:44;-1.70;99.90
41469;DHT22;27206;47.032;15.484;2023-02-01T01:28:10;-1.60;99.90
41469;DHT22;27206;47.032;15.484;2023-02-01T01:30:35;-1.80;99.90
41469;DHT22;27206;47.032;15.484;2023-02-01T01:33:01;-1.80;99.90
41469;DHT22;27206;47.032;15.484;2023-02-01T01:35:28;-1.80;99.90
41469;DHT22;27206;47.032;15.484;2023-02-01T01:37:54;-1.80;99.90
41469;DHT22;27206;47.032;15.484;2023-02-01T01:40:19;-1.90;99.90
41469;DHT22;27206;47.032;15.484;2023-02-01T01:42:45;-1.90;99.90
41469;DHT22;27206;47.032;15.484;2023-02-01T01:45:24;-1.80;99.90
41469;DHT22;27206;47.032;15.484;2023-02-01T01:47:54;-1.80;99.90
41469;DHT22;27206;47.032;15.484;2023-02-01T01:50:22;-1.80;99.90
41469;DHT22;27206;47.032;15.484;2023-02-01T01:52:49;-1.90;99.90
41469;DHT22;27206;47.032;15.484;2023-02-01T01:55:16;-1.80;99.90
41469;DHT22;27206;47.032;15.484;2023-02-01T01:57:43;-2.00;99.90
41469;DHT22;27206;47.032;15.484;2023-02-01T02:00:11;-1.90;99.90
41469;DHT22;27206;47.032;15.484;2023-02-01T02:02:37;-1.90;99.90
41469;DHT22;27206;47.032;15.484;2023-02-01T02:05:04;-1.90;99.90
41469;DHT22;27206;47.032;15.484;2023-02-01T02:07:30;-1.90;99.90
41469;DHT22;27206;47.032;15.484;2023-02-01T02:09:57;-1.90;99.90
41469;DHT22;27206;47.032;15.484;2023-02-01T02:12:22;-1.90;99.90
41469;DHT22;27206;47.032;15.484;2023-02-01T02:14:48;-1.90;99.90
41469;DHT22;27206;47.032;15.484;2023-02-01T02:17:26;-2.00;99.90
41469;DHT22;27206;47.032;15.484;2023-02-01T02:20:10;-2.10;99.90
41469;DHT22;27206;47.032;15.484;2023-02-01T02:35:24;-2.30;99.90
41469;DHT22;27206;47.032;15.484;2023-02-01T02:40:48;-2.40;99.90
41469;DHT22;27206;47.032;15.484;2023-02-01T02:43:20;-2.50;99.90
41469;DHT22;27206;47.032;15.484;2023-02-01T02:46:27;-2.60;99.90
41469;DHT22;27206;47.032;15.484;2023-02-01T02:49:15;-2.40;99.90
41469;DHT22;27206;47.032;15.484;2023-02-01T02:51:57;-2.50;99.90
41469;DHT22;27206;47.032;15.484;2023-02-01T02:54:43;-2.40;99.90
41469;DHT22;27206;47.032;15.484;2023-02-01T02:57:54;-2.30;99.90
41469;DHT22;27206;47.032;15.484;2023-02-01T03:00:19;-2.30;99.90
41469;DHT22;27206;47.032;15.484;2023-02-01T03:03:04;-2.40;99.90
41469;DHT22;27206;47.032;15.484;2023-02-01T03:05:49;-2.30;99.90
41469;DHT22;27206;47.032;15.484;2023-02-01T03:08:21;-2.40;99.90
41469;DHT22;27206;47.032;15.484;2023-02-01T03:10:53;-2.30;99.90
41469;DHT22;27206;47.032;15.484;2023-02-01T03:13:21;-2.20;99.90
41469;DHT22;27206;47.032;15.484;2023-02-01T03:15:51;-2.20;99.90
41469;DHT22;27206;47.032;15.484;2023-02-01T03:21:00;-2.30;99.90
41469;DHT22;27206;47.032;15.484;2023-02-01T03:23:30;-2.30;99.90
41469;DHT22;27206;47.032;15.484;2023-02-01T03:25:56;-2.10;99.90
41469;DHT22;27206;47.032;15.484;2023-02-01T03:28:23;-2.10;99.90
41469;DHT22;27206;47.032;15.484;2023-02-01T03:30:50;-2.20;99.90
41469;DHT22;27206;47.032;15.484;2023-02-01T03:33:20;-2.20;99.90
41469;DHT22;27206;47.032;15.484;2023-02-01T03:39:31;-2.30;99.90
41469;DHT22;27206;47.032;15.484;2023-02-01T03:44:19;-2.20;99.90
41469;DHT22;27206;47.032;15.484;2023-02-01T03:46:49;-2.10;99.90
41469;DHT22;27206;47.032;15.484;2023-02-01T03:49:18;-2.10;99.90
41469;DHT22;27206;47.032;15.484;2023-02-01T03:51:46;-2.10;99.90
41469;DHT22;27206;47.032;15.484;2023-02-01T03:54:13;-2.00;99.90
41469;DHT22;27206;47.032;15.484;2023-02-01T03:56:41;-2.00;99.90
41469;DHT22;27206;47.032;15.484;2023-02-01T03:59:09;-2.00;99.90
41469;DHT22;27206;47.032;15.484;2023-02-01T04:01:35;-2.00;99.90
41469;DHT22;27206;47.032;15.484;2023-02-01T04:04:00;-1.90;99.90
41469;DHT22;27206;47.032;15.484;2023-02-01T04:06:26;-2.00;99.90
41469;DHT22;27206;47.032;15.484;2023-02-01T04:08:51;-1.90;99.90
41469;DHT22;27206;47.032;15.484;2023-02-01T04:11:17;-2.00;99.90
41469;DHT22;27206;47.032;15.484;2023-02-01T04:13:43;-2.20;99.90
41469;DHT22;27206;47.032;15.484;2023-02-01T04:16:08;-2.20;99.90
41469;DHT22;27206;47.032;15.484;2023-02-01T04:18:34;-2.10;99.90
41469;DHT22;27206;47.032;15.484;2023-02-01T04:21:00;-2.20;99.90
41469;DHT22;27206;47.032;15.484;2023-02-01T04:23:27;-2.20;99.90
41469;DHT22;27206;47.032;15.484;2023-02-01T04:25:52;-2.20;99.90
41469;DHT22;27206;47.032;15.484;2023-02-01T04:28:18;-2.30;99.90
41469;DHT22;27206;47.032;15.484;2023-02-01T04:30:43;-2.60;99.90
41469;DHT22;27206;47.032;15.484;2023-02-01T04:33:10;-2.50;99.90
41469;DHT22;27206;47.032;15.484;2023-02-01T04:35:39;-2.40;99.90
41469;DHT22;27206;47.032;15.484;2023-02-01T04:38:05;-2.50;99.90
41469;DHT22;27206;47.032;15.484;2023-02-01T04:40:30;-2.50;99.90
41469;DHT22;27206;47.032;15.484;2023-02-01T04:42:55;-2.40;99.90
41469;DHT22;27206;47.032;15.484;2023-02-01T04:45:21;-2.30;99.90
41469;DHT22;27206;47.032;15.484;2023-02-01T04:47:46;-2.20;99.90
41469;DHT22;27206;47.032;15.484;2023-02-01T04:50:13;-2.40;99.90
41469;DHT22;27206;47.032;15.484;2023-02-01T04:52:39;-2.30;99.90
41469;DHT22;27206;47.032;15.484;2023-02-01T04:55:05;-2.20;99.90
41469;DHT22;27206;47.032;15.484;2023-02-01T04:57:31;-2.40;99.90
41469;DHT22;27206;47.032;15.484;2023-02-01T04:59:56;-2.40;99.90
41469;DHT22;27206;47.032;15.484;2023-02-01T05:02:22;-2.40;99.90
41469;DHT22;27206;47.032;15.484;2023-02-01T05:04:48;-2.30;99.90
41469;DHT22;27206;47.032;15.484;2023-02-01T05:07:13;-2.50;99.90
41469;DHT22;27206;47.032;15.484;2023-02-01T05:09:39;-2.60;99.90
41469;DHT22;27206;47.032;15.484;2023-02-01T05:12:04;-2.60;99.90
41469;DHT22;27206;47.032;15.484;2023-02-01T05:14:48;-2.80;99.90
41469;DHT22;27206;47.032;15.484;2023-02-01T05:17:14;-2.70;99.90
41469;DHT22;27206;47.032;15.484;2023-02-01T05:19:40;-2.60;99.90
41469;DHT22;27206;47.032;15.484;2023-02-01T05:22:05;-2.60;99.90
41469;DHT22;27206;47.032;15.484;2023-02-01T05:24:30;-2.40;99.90
41469;DHT22;27206;47.032;15.484;2023-02-01T05:26:56;-2.30;99.90
41469;DHT22;27206;47.032;15.484;2023-02-01T05:29:22;-2.30;99.90
41469;DHT22;27206;47.032;15.484;2023-02-01T05:31:47;-2.50;99.90
41469;DHT22;27206;47.032;15.484;2023-02-01T05:34:13;-2.40;99.90
41469;DHT22;27206;47.032;15.484;2023-02-01T05:36:39;-2.60;99.90
41469;DHT22;27206;47.032;15.484;2023-02-01T05:39:04;-2.80;99.90
41469;DHT22;27206;47.032;15.484;2023-02-01T05:41:32;-2.90;1.00
41469;DHT22;27206;47.032;15.484;2023-02-01T05:43:57;-2.70;1.00
41469;DHT22;27206;47.032;15.484;2023-02-01T05:46:23;-2.50;1.00
41469;DHT22;27206;47.032;15.484;2023-02-01T05:48:48;-2.50;99.90
41469;DHT22;27206;47.032;15.484;2023-02-01T05:51:14;-2.50;99.90
41469;DHT22;27206;47.032;15.484;2023-02-01T05:53:39;-2.60;99.90
41469;DHT22;27206;47.032;15.484;2023-02-01T05:56:05;-2.50;99.90
41469;DHT22;27206;47.032;15.484;2023-02-01T05:58:32;-2.60;99.90
41469;DHT22;27206;47.032;15.484;2023-02-01T06:01:01;-2.60;99.90
41469;DHT22;27206;47.032;15.484;2023-02-01T06:03:27;-2.60;99.90
41469;DHT22;27206;47.032;15.484;2023-02-01T06:05:53;-2.60;1.00
41469;DHT22;27206;47.032;15.484;2023-02-01T06:08:18;-1.70;1.00
41469;DHT22;27206;47.032;15.484;2023-02-01T06:10:44;-1.40;1.00
41469;DHT22;27206;47.032;15.484;2023-02-01T06:13:09;-1.00;1.00
41469;DHT22;27206;47.032;15.484;2023-02-01T06:15:35;-1.40;1.00
41469;DHT22;27206;47.032;15.484;2023-02-01T06:18:02;-1.60;99.90
41469;DHT22;27206;47.032;15.484;2023-02-01T06:20:28;-1.90;99.90
41469;DHT22;27206;47.032;15.484;2023-02-01T06:22:54;-2.20;99.90
41469;DHT22;27206;47.032;15.484;2023-02-01T06:25:19;-2.20;99.90
41469;DHT22;27206;47.032;15.484;2023-02-01T06:27:46;-2.20;99.90
41469;DHT22;27206;47.032;15.484;2023-02-01T06:30:12;-2.60;99.90
41469;DHT22;27206;47.032;15.484;2023-02-01T06:32:41;-2.40;99.90
41469;DHT22;27206;47.032;15.484;2023-02-01T06:35:07;-0.90;1.00
41469;DHT22;27206;47.032;15.484;2023-02-01T06:37:33;-1.30;1.00
41469;DHT22;27206;47.032;15.484;2023-02-01T06:39:59;-1.60;99.90
41469;DHT22;27206;47.032;15.484;2023-02-01T06:42:25;-1.80;99.90
41469;DHT22;27206;47.032;15.484;2023-02-01T06:44:51;-2.00;99.90
41469;DHT22;27206;47.032;15.484;2023-02-01T06:47:16;-2.10;99.90
41469;DHT22;27206;47.032;15.484;2023-02-01T06:49:42;-1.90;99.90
41469;DHT22;27206;47.032;15.484;2023-02-01T06:52:07;-1.80;99.90
41469;DHT22;27206;47.032;15.484;2023-02-01T06:54:33;-2.00;99.90
41469;DHT22;27206;47.032;15.484;2023-02-01T06:56:59;-2.00;99.90
41469;DHT22;27206;47.032;15.484;2023-02-01T06:59:25;-2.20;99.90
41469;DHT22;27206;47.032;15.484;2023-02-01T07:01:50;-2.20;99.90
41469;DHT22;27206;47.032;15.484;2023-02-01T07:04:16;-2.10;99.90
41469;DHT22;27206;47.032;15.484;2023-02-01T07:06:41;-2.00;99.90
41469;DHT22;27206;47.032;15.484;2023-02-01T07:09:07;-2.00;99.90
41469;DHT22;27206;47.032;15.484;2023-02-01T07:11:32;-1.80;99.90
41469;DHT22;27206;47.032;15.484;2023-02-01T07:13:58;-1.70;99.90
41469;DHT22;27206;47.032;15.484;2023-02-01T07:16:24;-1.70;99.90
41469;DHT22;27206;47.032;15.484;2023-02-01T07:18:50;-1.60;99.90
41469;DHT22;27206;47.032;15.484;2023-02-01T07:21:16;-1.60;99.90
41469;DHT22;27206;47.032;15.484;2023-02-01T07:23:41;-1.50;99.90
41469;DHT22;27206;47.032;15.484;2023-02-01T07:26:09;-1.40;99.90
41469;DHT22;27206;47.032;15.484;2023-02-01T07:28:35;-1.30;99.90
41469;DHT22;27206;47.032;15.484;2023-02-01T07:31:04;-1.20;99.90
41469;DHT22;27206;47.032;15.484;2023-02-01T07:33:30;-1.20;99.90
41469;DHT22;27206;47.032;15.484;2023-02-01T07:35:55;-1.10;99.90
41469;DHT22;27206;47.032;15.484;2023-02-01T07:38:21;-1.10;99.90
41469;DHT22;27206;47.032;15.484;2023-02-01T07:40:49;-0.90;99.90
41469;DHT22;27206;47.032;15.484;2023-02-01T07:43:14;-0.90;99.90
41469;DHT22;27206;47.032;15.484;2023-02-01T07:45:40;-0.80;99.90
41469;DHT22;27206;47.032;15.484;2023-02-01T07:48:05;-0.80;99.90
41469;DHT22;27206;47.032;15.484;2023-02-01T07:50:31;-0.70;99.90
41469;DHT22;27206;47.032;15.484;2023-02-01T07:53:00;-0.60;99.90
41469;DHT22;27206;47.032;15.484;2023-02-01T07:55:26;-0.40;99.90
41469;DHT22;27206;47.032;15.484;2023-02-01T07:57:51;-0.30;99.90
41469;DHT22;27206;47.032;15.484;2023-02-01T08:00:17;-0.10;99.90
41469;DHT22;27206;47.032;15.484;2023-02-01T08:03:03;0.10;99.90
41469;DHT22;27206;47.032;15.484;2023-02-01T08:05:28;0.30;99.90
41469;DHT22;27206;47.032;15.484;2023-02-01T08:07:54;0.60;99.90
41469;DHT22;27206;47.032;15.484;2023-02-01T08:10:19;0.80;99.90
41469;DHT22;27206;47.032;15.484;2023-02-01T08:12:45;1.00;99.90
41469;DHT22;27206;47.032;15.484;2023-02-01T08:15:14;1.10;99.90
41469;DHT22;27206;47.032;15.484;2023-02-01T08:17:45;1.30;99.90
41469;DHT22;27206;47.032;15.484;2023-02-01T08:20:11;1.60;99.90
41469;DHT22;27206;47.032;15.484;2023-02-01T08:22:38;1.90;99.90
41469;DHT22;27206;47.032;15.484;2023-02-01T08:25:04;2.10;99.90
41469;DHT22;27206;47.032;15.484;2023-02-01T08:27:32;2.40;99.90
41469;DHT22;27206;47.032;15.484;2023-02-01T08:29:57;2.70;99.90
41469;DHT22;27206;47.032;15.484;2023-02-01T08:32:23;2.80;99.90
41469;DHT22;27206;47.032;15.484;2023-02-01T08:34:49;2.90;99.90
41469;DHT22;27206;47.032;15.484;2023-02-01T08:37:15;3.20;99.90
41469;DHT22;27206;47.032;15.484;2023-02-01T08:39:40;3.40;99.90
41469;DHT22;27206;47.032;15.484;2023-02-01T08:42:08;3.50;99.90
41469;DHT22;27206;47.032;15.484;2023-02-01T08:44:52;3.70;99.90
41469;DHT22;27206;47.032;15.484;2023-02-01T08:47:18;3.80;99.90
41469;DHT22;27206;47.032;15.484;2023-02-01T08:49:43;4.00;99.90
41469;DHT22;27206;47.032;15.484;2023-02-01T08:52:09;4.20;99.90
41469;DHT22;27206;47.032;15.484;2023-02-01T08:54:35;4.40;99.90
41469;DHT22;27206;47.032;15.484;2023-02-01T08:57:00;4.60;99.90
41469;DHT22;27206;47.032;15.484;2023-02-01T08:59:26;4.70;99.90
41469;DHT22;27206;47.032;15.484;2023-02-01T09:01:51;4.80;99.90
41469;DHT22;27206;47.032;15.484;2023-02-01T09:04:17;4.90;99.90
41469;DHT22;27206;47.032;15.484;2023-02-01T09:06:42;5.10;99.90
41469;DHT22;27206;47.032;15.484;2023-02-01T09:09:08;5.20;99.90
41469;DHT22;27206;47.032;15.484;2023-02-01T09:11:33;5.30;99.90
41469;DHT22;27206;47.032;15.484;2023-02-01T09:13:59;5.60;99.90
41469;DHT22;27206;47.032;15.484;2023-02-01T09:16:24;5.60;99.90
41469;DHT22;27206;47.032;15.484;2023-02-01T09:18:50;5.60;99.90
41469;DHT22;27206;47.032;15.484;2023-02-01T09:21:15;5.70;99.90
41469;DHT22;27206;47.032;15.484;2023-02-01T09:23:42;5.90;99.90
41469;DHT22;27206;47.032;15.484;2023-02-01T09:26:08;6.10;99.90
41469;DHT22;27206;47.032;15.484;2023-02-01T09:28:34;6.00;99.90
41469;DHT22;27206;47.032;15.484;2023-02-01T09:30:59;6.10;99.90
41469;DHT22;27206;47.032;15.484;2023-02-01T09:33:26;6.30;99.90
41469;DHT22;27206;47.032;15.484;2023-02-01T09:35:55;6.30;99.90
41469;DHT22;27206;47.032;15.484;2023-02-01T09:38:21;6.40;99.90
41469;DHT22;27206;47.032;15.484;2023-02-01T09:40:46;6.60;99.90
41469;DHT22;27206;47.032;15.484;2023-02-01T09:43:28;6.70;99.90
41469;DHT22;27206;47.032;15.484;2023-02-01T09:48:36;6.90;99.90
41469;DHT22;27206;47.032;15.484;2023-02-01T09:51:04;7.20;99.90
41469;DHT22;27206;47.032;15.484;2023-02-01T09:53:37;7.40;99.90
41469;DHT22;27206;47.032;15.484;2023-02-01T09:56:07;7.30;99.90
41469;DHT22;27206;47.032;15.484;2023-02-01T09:58:42;7.40;99.90
41469;DHT22;27206;47.032;15.484;2023-02-01T10:01:13;7.60;99.90
41469;DHT22;27206;47.032;15.484;2023-02-01T10:03:40;7.70;99.90
41469;DHT22;27206;47.032;15.484;2023-02-01T10:06:13;7.80;99.90
41469;DHT22;27206;47.032;15.484;2023-02-01T10:11:26;8.10;99.90
41469;DHT22;27206;47.032;15.484;2023-02-01T10:14:08;8.20;99.90
41469;DHT22;27206;47.032;15.484;2023-02-01T10:19:22;8.10;99.90
41469;DHT22;27206;47.032;15.484;2023-02-01T10:24:47;8.80;99.90
41469;DHT22;27206;47.032;15.484;2023-02-01T10:27:40;9.00;99.90
41469;DHT22;27206;47.032;15.484;2023-02-01T10:30:14;9.00;99.90
41469;DHT22;27206;47.032;15.484;2023-02-01T10:32:41;8.90;99.90
41469;DHT22;27206;47.032;15.484;2023-02-01T10:35:21;9.00;99.90
41469;DHT22;27206;47.032;15.484;2023-02-01T10:37:47;9.20;99.90
41469;DHT22;27206;47.032;15.484;2023-02-01T10:42:38;10.00;99.90
41469;DHT22;27206;47.032;15.484;2023-02-01T10:45:04;10.20;99.90
41469;DHT22;27206;47.032;15.484;2023-02-01T10:47:30;10.50;99.90
41469;DHT22;27206;47.032;15.484;2023-02-01T10:52:45;10.70;99.90
41469;DHT22;27206;47.032;15.484;2023-02-01T10:57:56;11.50;99.90
41469;DHT22;27206;47.032;15.484;2023-02-01T11:00:23;11.50;99.90
41469;DHT22;27206;47.032;15.484;2023-02-01T11:02:48;11.80;99.90
41469;DHT22;27206;47.032;15.484;2023-02-01T11:05:15;11.90;99.90
41469;DHT22;27206;47.032;15.484;2023-02-01T11:07:46;11.70;99.90
41469;DHT22;27206;47.032;15.484;2023-02-01T11:10:34;12.00;99.90
41469;DHT22;27206;47.032;15.484;2023-02-01T11:13:01;11.70;99.90
41469;DHT22;27206;47.032;15.484;2023-02-01T11:15:27;11.80;99.90
41469;DHT22;27206;47.032;15.484;2023-02-01T11:17:52;12.60;99.90
41469;DHT22;27206;47.032;15.484;2023-02-01T11:22:56;13.00;99.90
41469;DHT22;27206;47.032;15.484;2023-02-01T11:25:22;12.50;99.90
41469;DHT22;27206;47.032;15.484;2023-02-01T11:27:48;13.00;99.90
41469;DHT22;27206;47.032;15.484;2023-02-01T11:30:36;13.60;99.90
41469;DHT22;27206;47.032;15.484;2023-02-01T11:33:01;13.50;99.90
41469;DHT22;27206;47.032;15.484;2023-02-01T11:35:28;13.60;99.90
41469;DHT22;27206;47.032;15.484;2023-02-01T11:37:54;14.00;99.90
41469;DHT22;27206;47.032;15.484;2023-02-01T11:40:36;13.60;99.90
41469;DHT22;27206;47.032;15.484;2023-02-01T11:45:37;13.90;99.90
41469;DHT22;27206;47.032;15.484;2023-02-01T11:48:07;14.10;99.90
41469;DHT22;27206;47.032;15.484;2023-02-01T11:50:35;13.90;99.90
41469;DHT22;27206;47.032;15.484;2023-02-01T11:55:40;14.40;99.90
41469;DHT22;27206;47.032;15.484;2023-02-01T12:09:19;14.60;99.90
41469;DHT22;27206;47.032;15.484;2023-02-01T12:24:57;14.50;99.90
41469;DHT22;27206;47.032;15.484;2023-02-01T12:30:16;14.20;99.90
41469;DHT22;27206;47.032;15.484;2023-02-01T12:35:33;14.50;99.90
41469;DHT22;27206;47.032;15.484;2023-02-01T12:42:56;13.60;99.90
41469;DHT22;27206;47.032;15.484;2023-02-01T12:45:27;13.60;99.90
41469;DHT22;27206;47.032;15.484;2023-02-01T12:48:06;13.30;99.90
41469;DHT22;27206;47.032;15.484;2023-02-01T12:50:41;13.40;99.90
41469;DHT22;27206;47.032;15.484;2023-02-01T12:53:13;13.20;99.90
41469;DHT22;27206;47.032;15.484;2023-02-01T12:56:05;13.40;99.90
41469;DHT22;27206;47.032;15.484;2023-02-01T12:58:40;13.80;99.90
41469;DHT22;27206;47.032;15.484;2023-02-01T13:01:07;13.50;99.90
41469;DHT22;27206;47.032;15.484;2023-02-01T13:08:42;14.00;99.90
41469;DHT22;27206;47.032;15.484;2023-02-01T13:11:11;13.80;99.90
41469;DHT22;27206;47.032;15.484;2023-02-01T13:13:44;14.00;99.90
41469;DHT22;27206;47.032;15.484;2023-02-01T13:18:39;14.30;99.90
41469;DHT22;27206;47.032;15.484;2023-02-01T13:21:15;14.40;99.90
41469;DHT22;27206;47.032;15.484;2023-02-01T13:23:43;13.90;99.90
41469;DHT22;27206;47.032;15.484;2023-02-01T13:26:10;14.20;99.90
41469;DHT22;27206;47.032;15.484;2023-02-01T13:28:43;14.50;99.90
41469;DHT22;27206;47.032;15.484;2023-02-01T13:39:18;14.60;99.90
41469;DHT22;27206;47.032;15.484;2023-02-01T13:44:21;14.10;99.90
41469;DHT22;27206;47.032;15.484;2023-02-01T13:46:49;14.10;99.90
41469;DHT22;27206;47.032;15.484;2023-02-01T13:49:23;13.70;99.90
41469;DHT22;27206;47.032;15.484;2023-02-01T13:51:53;13.50;99.90
41469;DHT22;27206;47.032;15.484;2023-02-01T13:54:32;13.60;99.90
41469;DHT22;27206;47.032;15.484;2023-02-01T13:57:02;13.30;99.90
41469;DHT22;27206;47.032;15.484;2023-02-01T14:04:50;13.10;99.90
41469;DHT22;27206;47.032;15.484;2023-02-01T14:07:20;12.80;99.90
41469;DHT22;27206;47.032;15.484;2023-02-01T14:09:46;12.60;99.90
41469;DHT22;27206;47.032;15.484;2023-02-01T14:15:16;12.40;99.90
41469;DHT22;27206;47.032;15.484;2023-02-01T14:17:41;12.20;99.90
41469;DHT22;27206;47.032;15.484;2023-02-01T14:20:57;12.40;99.90
41469;DHT22;27206;47.032;15.484;2023-02-01T14:22:59;12.30;99.90
41469;DHT22;27206;47.032;15.484;2023-02-01T14:25:25;12.30;99.90
41469;DHT22;27206;47.032;15.484;2023-02-01T14:27:57;12.00;99.90
41469;DHT22;27206;47.032;15.484;2023-02-01T14:30:22;12.30;99.90
41469;DHT22;27206;47.032;15.484;2023-02-01T14:32:48;12.50;99.90
41469;DHT22;27206;47.032;15.484;2023-02-01T14:35:21;12.20;99.90
41469;DHT22;27206;47.032;15.484;2023-02-01T14:37:53;11.80;99.90
41469;DHT22;27206;47.032;15.484;2023-02-01T14:40:25;11.80;99.90
41469;DHT22;27206;47.032;15.484;2023-02-01T14:42:51;11.90;99.90
41469;DHT22;27206;47.032;15.484;2023-02-01T14:50:20;11.50;99.90
41469;DHT22;27206;47.032;15.484;2023-02-01T14:52:50;11.00;99.90
41469;DHT22;27206;47.032;15.484;2023-02-01T14:57:43;10.80;99.90
41469;DHT22;27206;47.032;15.484;2023-02-01T15:00:20;10.40;99.90
41469;DHT22;27206;47.032;15.484;2023-02-01T15:02:47;10.30;99.90
41469;DHT22;27206;47.032;15.484;2023-02-01T15:05:28;10.20;99.90
41469;DHT22;27206;47.032;15.484;2023-02-01T15:08:07;9.90;99.90
41469;DHT22;27206;47.032;15.484;2023-02-01T15:10:39;10.00;99.90
41469;DHT22;27206;47.032;15.484;2023-02-01T15:13:08;10.00;99.90
41469;DHT22;27206;47.032;15.484;2023-02-01T15:15:37;10.10;99.90
41469;DHT22;27206;47.032;15.484;2023-02-01T15:18:03;10.10;99.90
41469;DHT22;27206;47.032;15.484;2023-02-01T15:20:30;9.90;99.90
41469;DHT22;27206;47.032;15.484;2023-02-01T15:22:58;10.30;99.90
41469;DHT22;27206;47.032;15.484;2023-02-01T15:25:25;10.50;99.90
41469;DHT22;27206;47.032;15.484;2023-02-01T15:27:51;10.20;99.90
41469;DHT22;27206;47.032;15.484;2023-02-01T15:30:21;9.90;99.90
41469;DHT22;27206;47.032;15.484;2023-02-01T15:32:47;10.00;99.90
41469;DHT22;27206;47.032;15.484;2023-02-01T15:40:52;9.30;99.90
41469;DHT22;27206;47.032;15.484;2023-02-01T15:43:18;9.30;99.90
41469;DHT22;27206;47.032;15.484;2023-02-01T15:45:44;9.20;99.90
41469;DHT22;27206;47.032;15.484;2023-02-01T15:48:14;9.10;99.90
41469;DHT22;27206;47.032;15.484;2023-02-01T15:50:45;9.10;99.90
41469;DHT22;27206;47.032;15.484;2023-02-01T15:53:13;8.90;99.90
41469;DHT22;27206;47.032;15.484;2023-02-01T15:55:40;8.40;99.90
41469;DHT22;27206;47.032;15.484;2023-02-01T15:58:08;8.60;99.90
41469;DHT22;27206;47.032;15.484;2023-02-01T16:00:44;8.50;99.90
41469;DHT22;27206;47.032;15.484;2023-02-01T16:05:54;8.40;99.90
41469;DHT22;27206;47.032;15.484;2023-02-01T16:08:21;8.30;99.90
41469;DHT22;27206;47.032;15.484;2023-02-01T16:10:49;8.30;99.90
41469;DHT22;27206;47.032;15.484;2023-02-01T16:13:15;8.20;99.90
41469;DHT22;27206;47.032;15.484;2023-02-01T16:15:41;8.10;99.90
41469;DHT22;27206;47.032;15.484;2023-02-01T16:18:07;8.00;99.90
41469;DHT22;27206;47.032;15.484;2023-02-01T16:20:34;7.90;99.90
41469;DHT22;27206;47.032;15.484;2023-02-01T16:23:00;7.70;99.90
41469;DHT22;27206;47.032;15.484;2023-02-01T16:25:26;7.70;99.90
41469;DHT22;27206;47.032;15.484;2023-02-01T16:27:51;7.70;99.90
41469;DHT22;27206;47.032;15.484;2023-02-01T16:30:17;7.60;99.90
41469;DHT22;27206;47.032;15.484;2023-02-01T16:32:58;7.50;99.90
41469;DHT22;27206;47.032;15.484;2023-02-01T16:35:28;7.50;99.90
41469;DHT22;27206;47.032;15.484;2023-02-01T16:37:56;7.50;99.90
41469;DHT22;27206;47.032;15.484;2023-02-01T16:40:23;7.50;99.90
41469;DHT22;27206;47.032;15.484;2023-02-01T16:42:50;7.40;99.90
41469;DHT22;27206;47.032;15.484;2023-02-01T16:45:15;7.30;99.90
41469;DHT22;27206;47.032;15.484;2023-02-01T16:47:44;7.40;99.90
41469;DHT22;27206;47.032;15.484;2023-02-01T16:50:14;7.40;99.90
41469;DHT22;27206;47.032;15.484;2023-02-01T16:52:41;7.40;99.90
41469;DHT22;27206;47.032;15.484;2023-02-01T16:55:13;7.40;99.90
41469;DHT22;27206;47.032;15.484;2023-02-01T16:57:39;7.40;99.90
41469;DHT22;27206;47.032;15.484;2023-02-01T17:00:08;7.40;99.90
41469;DHT22;27206;47.032;15.484;2023-02-01T17:02:33;7.40;99.90
41469;DHT22;27206;47.032;15.484;2023-02-01T17:04:59;7.50;99.90
41469;DHT22;27206;47.032;15.484;2023-02-01T17:07:25;7.40;99.90
41469;DHT22;27206;47.032;15.484;2023-02-01T17:09:51;7.40;99.90
41469;DHT22;27206;47.032;15.484;2023-02-01T17:12:24;7.50;99.90
41469;DHT22;27206;47.032;15.484;2023-02-01T17:14:50;7.40;99.90
41469;DHT22;27206;47.032;15.484;2023-02-01T17:17:15;7.40;99.90
41469;DHT22;27206;47.032;15.484;2023-02-01T17:19:42;7.40;99.90
41469;DHT22;27206;47.032;15.484;2023-02-01T17:22:08;7.50;99.90
41469;DHT22;27206;47.032;15.484;2023-02-01T17:24:34;7.50;99.90
41469;DHT22;27206;47.032;15.484;2023-02-01T17:26:59;7.40;99.90
41469;DHT22;27206;47.032;15.484;2023-02-01T17:29:25;7.30;99.90
41469;DHT22;27206;47.032;15.484;2023-02-01T17:31:53;7.20;99.90
41469;DHT22;27206;47.032;15.484;2023-02-01T17:34:19;7.10;99.90
41469;DHT22;27206;47.032;15.484;2023-02-01T17:36:45;7.00;99.90